createdAt,value
2016-08-26T00:01:51.690Z,61.88
2016-08-26T00:16:51.711Z,63.84
2016-08-26T00:31:51.698Z,63.1
2016-08-26T00:46:51.699Z,62.61
2016-08-26T01:01:57.941Z,62.82
2016-08-26T01:16:56.375Z,62.58
2016-08-26T01:31:57.938Z,60.62
2016-08-26T01:46:51.717Z,59.58
2016-08-26T02:01:58.345Z,59.6
2016-08-26T02:16:51.739Z,59.78
2016-08-26T02:31:51.776Z,59.59
2016-08-26T02:46:56.326Z,59.44
2016-08-26T03:01:58.347Z,59.74
2016-08-26T03:16:52.553Z,58.81
2016-08-26T03:31:51.778Z,57.76
2016-08-26T03:46:58.338Z,57.3
2016-08-26T04:01:58.359Z,55.71
2016-08-26T04:16:57.958Z,54.25
2016-08-26T04:31:51.993Z,54.05
2016-08-26T04:46:51.742Z,52.86
2016-08-26T05:01:51.751Z,52.19
2016-08-26T05:16:59.878Z,50.98
2016-08-26T05:31:51.783Z,50.96
2016-08-26T05:46:56.688Z,50.22
2016-08-26T06:01:51.757Z,51.24
2016-08-26T06:16:51.753Z,50.64
2016-08-26T06:31:58.106Z,50.27
2016-08-26T06:46:51.786Z,53.53
2016-08-26T07:01:56.356Z,52.57
2016-08-26T07:16:51.763Z,50.79
2016-08-26T07:31:51.757Z,48.62
2016-08-26T07:46:51.799Z,47.28
2016-08-26T08:01:51.756Z,47.24
2016-08-26T08:16:54.697Z,47.81
2016-08-26T08:31:53.883Z,47.82
2016-08-26T08:46:56.855Z,47.55
2016-08-26T09:01:53.778Z,47.49
2016-08-26T09:17:00.093Z,45.86
2016-08-26T09:32:03.025Z,38.24
2016-08-26T09:46:51.767Z,33.46
2016-08-26T10:01:55.943Z,37.07
2016-08-26T10:16:54.720Z,36.76
2016-08-26T10:32:02.215Z,37.77
2016-08-26T10:46:51.773Z,38.94
2016-08-26T11:01:58.039Z,36.64
2016-08-26T11:16:57.986Z,37.77
2016-08-26T11:31:58.087Z,36.1
2016-08-26T11:46:51.775Z,32.83
2016-08-26T12:01:51.781Z,34.21
2016-08-26T12:16:51.811Z,31.72
2016-08-26T12:31:51.777Z,33.46
2016-08-26T12:46:55.899Z,34.91
2016-08-26T13:01:55.893Z,37.86
2016-08-26T13:16:51.859Z,33.23
2016-08-26T13:31:51.783Z,34.26
2016-08-26T13:46:51.808Z,33.5
2016-08-26T14:01:51.800Z,31.39
2016-08-26T14:16:51.849Z,31.66
2016-08-26T14:31:53.804Z,33.07
2016-08-26T14:46:53.932Z,32.84
2016-08-26T15:01:53.919Z,33.52
2016-08-26T15:16:53.990Z,34.39
2016-08-26T15:32:07.383Z,33.58
2016-08-26T15:46:58.037Z,33.83
2016-08-26T16:01:59.695Z,34.2
2016-08-26T16:16:58.911Z,35.81
2016-08-26T16:31:58.145Z,37.22
2016-08-26T16:46:56.869Z,37.3
2016-08-26T17:01:55.934Z,38.32
2016-08-26T17:16:53.843Z,39.43
2016-08-26T17:31:56.839Z,41.79
2016-08-26T17:46:53.971Z,43.04
2016-08-26T18:01:58.165Z,48.71
2016-08-26T18:16:58.172Z,67.15
2016-08-26T18:31:51.864Z,72.98
2016-08-26T18:46:56.132Z,73.88
2016-08-26T19:01:56.081Z,69.56
2016-08-26T19:17:01.127Z,69.11
2016-08-26T19:32:02.903Z,69.06
2016-08-26T19:46:51.871Z,68.09
2016-08-26T20:01:56.148Z,66.27
2016-08-26T20:17:03.029Z,65.82
2016-08-26T20:32:01.127Z,65.41
2016-08-26T20:46:51.870Z,65.7
2016-08-26T21:01:51.875Z,66.35
2016-08-26T21:16:51.989Z,66.9
2016-08-26T21:31:51.875Z,68.17
2016-08-26T21:46:51.880Z,67.72
2016-08-26T22:01:51.881Z,67.22
2016-08-26T22:16:56.952Z,66.75
2016-08-26T22:32:02.310Z,64.89
2016-08-26T22:46:58.484Z,62.54
2016-08-26T23:01:51.901Z,62.44
2016-08-26T23:16:51.899Z,62.96
2016-08-26T23:31:51.950Z,63.9
2016-08-26T23:46:51.940Z,64.5
